Sutherland, NE (69165)

4:39 PM CDT on July 25, 2016 (GMT -0500)
Cactus Hills | | Change Station

Elev 3091 ft 41.17 °N, 101.14 °W | Updated 2 seconds ago

Partly Cloudy
Partly Cloudy
87.3 °F
Feels Like 90 °F
N
1.3
Wind Variable Wind from SSE
Gusts 2.5 mph

Today
High -- | Low -- °F
--% Chance of Precip.
Yesterday
High -- | Low -- °F
Precip. -- in
Pressure 30.02 in
Visibility 10.0 miles
Clouds Few 4200 ft
Heat Index 90 °F
Dew Point 66 °F
Humidity 49%
Rainfall 0.00 in
Snow Depth Not available.
6:33 AM 9:07 PM
Waning Gibbous, 62% visible
METAR KLBF 252053Z AUTO 15007KT 10SM FEW042 29/19 A3009 RMK AO2 SLP165 T02940189 58018
Pressure 30.02 in
Visibility 10.0 miles
Clouds Few 4200 ft
Heat Index 90 °F
Dew Point 66 °F
Humidity 49%
Rainfall 0.00 in
Snow Depth Not available.
6:33 AM 9:07 PM
Waning Gibbous, 62% visible
METAR KLBF 252053Z AUTO 15007KT 10SM FEW042 29/19 A3009 RMK AO2 SLP165 T02940189 58018

10-Day Weather Forecast

Almanac

Astronomy

Jul. 25, 2016 Rise Set
Actual Time
Civil Twilight
Nautical Twilight
Astronomical Twilight
Moon
Length of Visible Light
Length of Day
Tomorrow will be .
, % of the Moon is Illuminated

Today's Extremes

State Highs State Lows

Community

WunderPhotos

Upload Photos

1,927,423 photos uploaded!

WunderBlog® & News

Nearby

Air Quality

  Air Quality AQ Index Pollutant
Not available.

Snow Depth

Station Depth Elevation

Earthquake Activity

City Distance Mag. Time & Date
Minimum magnitude displayed is 2.5.

Coastal Water Temperatures

Place Temperature

Stations

Nearby Weather Stations

Station Location Temp. Windchill Dew Point Humidity Wind Precip. Elev Updated Type
                   

Watches & Warnings

There are currently no watches in effect.